메인 페이지
METAR-TAF:

METAR-TAF

공항 :

요새 피어스, 플로리다, 미국

위도: 27-29-53N, 경도: 080-22-36W, 고도: 8m

현재 날씨관측

예보는 18분 전, 19:53시(UTC)에 발표되었습니다.
8kt
온도 23°C
습도 89%
기압 1010 hPa
시정: 16.1km
고도 3600ft 상공 구름 많음

METAR: KFPR 301953Z 28008KT 10SM BKN036 23/21 A2983 RMK AO2 SLP100 T02280211

시각: 15:11 (20:11 UTC)

예보

예보는 2 시간 47분 전, 17:24시(UTC)에 발표되었습니다.
예보 대상 시간: 30일 18시부터 01일 18시까지 (UTC)
남남서13kt, 순간 최대 풍속 20kt
시정: 10km
고도 2000ft 상공 구름 보통
고도 5000ft 상공 흐림
시계 내 소나기
30일 2000시부터 (UTC)
서남서12kt, 순간 최대 풍속 19kt
시정: 10km
고도 4000ft 상공 구름 보통
고도 10000ft 상공 구름 많음
시계 내 소나기
01일 0000시부터 (UTC)
11kt
시정: 10km
고도 5000ft 상공 구름 조금
고도 12000ft 상공 구름 보통
01일 0300시부터 (UTC)
서북서10kt
시정: 10km
맑음
01일 1500시부터 (UTC)
북서10kt
시정: 10km
고도 2000ft 상공 구름 보통
고도 18000ft 상공 구름 보통

TAF: KFPR 301724Z 3018/0118 21013G20KT P6SM VCSH SCT020 OVC050 FM302000 25012G19KT P6SM VCSH SCT040 BKN100 FM010000 28011KT P6SM FEW050 SCT120 FM010300 30010KT P6SM SKC FM011500 32010KT P6SM SCT020 SCT180

4,000개 이상의 공항 관측 자료 및 예보 (METAR 및 TAF 보고).

지도상에서 검색 가능한 기상관측소가 노란 점과 빨간 점으로 표시되어 있습니다.

기상관측소 명을 보려면 표시 위로 마우스를 이동하세요.

날씨 관측과 예보를 보려면 클릭하세요.

지도 변경 : 확대하려면 엑스 표시가 있는 녹색 버튼, 축소하려면 빼기 표시가 있는 녹색 버튼, 다음 페이지의 지도를 보려면 녹색 화살표를 클릭하세요.


METAR-TAF: